createdAt,value
2018-10-16T00:00:04.215Z,14.48
2018-10-16T00:01:04.201Z,14.46
2018-10-16T00:02:04.199Z,14.61
2018-10-16T00:03:04.226Z,14.54
2018-10-16T00:04:04.187Z,14.59
2018-10-16T00:05:04.186Z,14.59
2018-10-16T00:06:04.181Z,14.64
2018-10-16T00:07:04.171Z,14.60
2018-10-16T00:08:04.167Z,14.63
2018-10-16T00:09:04.166Z,14.53
2018-10-16T00:10:04.160Z,14.49
2018-10-16T00:11:04.157Z,14.49
2018-10-16T00:12:04.158Z,14.54
2018-10-16T00:13:04.140Z,14.46
2018-10-16T00:14:04.136Z,14.45
2018-10-16T00:15:04.131Z,14.45
2018-10-16T00:16:04.125Z,14.53
2018-10-16T00:17:04.123Z,14.41
2018-10-16T00:18:04.119Z,14.46
2018-10-16T00:19:04.115Z,14.41
2018-10-16T00:20:04.112Z,14.42
2018-10-16T00:21:04.098Z,14.36
2018-10-16T00:22:04.097Z,14.30
2018-10-16T00:23:04.096Z,14.27
2018-10-16T00:24:04.089Z,14.31
2018-10-16T00:25:04.079Z,14.35
2018-10-16T00:26:04.123Z,14.30
2018-10-16T00:27:04.068Z,14.34
2018-10-16T00:28:04.062Z,14.31
2018-10-16T00:29:04.063Z,14.24
2018-10-16T00:30:04.057Z,14.19
2018-10-16T00:31:04.056Z,14.19
2018-10-16T00:32:04.047Z,14.13
2018-10-16T00:33:04.037Z,14.17
2018-10-16T00:34:04.031Z,14.19
2018-10-16T00:35:04.030Z,14.16
2018-10-16T00:36:04.021Z,14.16
2018-10-16T00:37:04.029Z,14.13
2018-10-16T00:38:04.015Z,14.12
2018-10-16T00:39:04.006Z,14.13
2018-10-16T00:40:03.999Z,14.16
2018-10-16T00:41:04.000Z,14.12
2018-10-16T00:42:03.995Z,14.17
2018-10-16T00:43:03.988Z,14.09
2018-10-16T00:44:03.982Z,13.99
2018-10-16T00:45:03.973Z,14.09
2018-10-16T00:46:03.969Z,14.06
2018-10-16T00:47:03.967Z,14.09
2018-10-16T00:48:03.960Z,14.11
2018-10-16T00:49:03.957Z,14.06
2018-10-16T00:50:03.950Z,14.04
2018-10-16T00:51:03.947Z,13.99
2018-10-16T00:52:03.940Z,13.99
2018-10-16T00:53:03.931Z,14.08
2018-10-16T00:54:03.929Z,14.02
2018-10-16T00:55:04.091Z,13.94
2018-10-16T00:56:03.919Z,14.05
2018-10-16T00:57:03.908Z,14.06
2018-10-16T00:58:03.904Z,13.98
2018-10-16T00:59:03.899Z,14.06
2018-10-16T01:00:03.892Z,14.11
2018-10-16T01:01:03.894Z,14.11
2018-10-16T01:02:03.892Z,14.01
2018-10-16T01:03:03.881Z,13.96
2018-10-16T01:04:03.875Z,14.05
2018-10-16T01:05:03.867Z,13.98
2018-10-16T01:06:03.859Z,13.96
2018-10-16T01:07:03.855Z,14.02
2018-10-16T01:08:03.849Z,13.91
2018-10-16T01:09:03.849Z,13.90
2018-10-16T01:10:03.842Z,13.88
2018-10-16T01:11:03.833Z,13.80
2018-10-16T01:12:03.832Z,13.86
2018-10-16T01:13:03.831Z,13.84
2018-10-16T01:14:03.822Z,13.86
2018-10-16T01:15:03.815Z,13.81
2018-10-16T01:16:03.812Z,13.88
2018-10-16T01:17:03.801Z,13.79
2018-10-16T01:18:03.796Z,13.71
2018-10-16T01:19:03.795Z,13.72
2018-10-16T01:20:03.786Z,13.73
2018-10-16T01:21:03.781Z,13.73
2018-10-16T01:22:03.777Z,13.72
2018-10-16T01:23:03.775Z,13.80
2018-10-16T01:24:03.765Z,13.79
2018-10-16T01:25:03.761Z,13.84
2018-10-16T01:26:03.751Z,13.80
2018-10-16T01:27:03.750Z,13.84
2018-10-16T01:28:03.762Z,13.86
2018-10-16T01:29:03.734Z,13.84
2018-10-16T01:30:03.727Z,13.87
2018-10-16T01:31:03.722Z,13.76
2018-10-16T01:32:03.716Z,13.80
2018-10-16T01:33:03.715Z,13.80
2018-10-16T01:34:03.710Z,13.80
2018-10-16T01:35:03.705Z,13.81
2018-10-16T01:36:03.698Z,13.90
2018-10-16T01:37:03.691Z,13.84
2018-10-16T01:38:03.695Z,13.86
2018-10-16T01:39:03.678Z,13.93
2018-10-16T01:40:03.674Z,13.88
2018-10-16T01:41:03.671Z,13.91
2018-10-16T01:42:03.666Z,13.99
2018-10-16T01:43:03.656Z,13.98
2018-10-16T01:44:03.650Z,13.96
2018-10-16T01:45:03.653Z,14.08
2018-10-16T01:46:03.645Z,13.99
2018-10-16T01:47:03.639Z,14.09
2018-10-16T01:48:03.634Z,14.06
2018-10-16T01:49:03.624Z,14.08
2018-10-16T01:50:03.618Z,13.99
2018-10-16T01:51:03.612Z,14.01
2018-10-16T01:52:03.606Z,14.02
2018-10-16T01:53:03.605Z,14.09
2018-10-16T01:54:03.604Z,14.09
2018-10-16T01:55:03.595Z,14.05
2018-10-16T01:56:03.590Z,14.12
2018-10-16T01:57:03.579Z,13.99
2018-10-16T01:58:03.574Z,14.05
2018-10-16T01:59:03.575Z,14.05
2018-10-16T02:00:03.568Z,14.02
2018-10-16T02:01:03.559Z,14.08
2018-10-16T02:02:03.553Z,14.04
2018-10-16T02:03:03.547Z,14.06
2018-10-16T02:04:03.543Z,14.06
2018-10-16T02:05:03.541Z,14.08
2018-10-16T02:06:03.536Z,14.08
2018-10-16T02:07:03.532Z,14.01
2018-10-16T02:08:03.526Z,14.09
2018-10-16T02:09:03.516Z,13.94
2018-10-16T02:10:03.511Z,14.04
2018-10-16T02:11:03.505Z,14.11
2018-10-16T02:12:03.500Z,14.06
2018-10-16T02:13:03.501Z,14.06
2018-10-16T02:14:03.494Z,13.99
2018-10-16T02:15:03.484Z,13.99
2018-10-16T02:16:03.477Z,13.93
2018-10-16T02:17:03.479Z,13.96
2018-10-16T02:18:03.472Z,14.04
2018-10-16T02:19:03.466Z,13.99
2018-10-16T02:20:03.460Z,13.98
2018-10-16T02:21:03.452Z,13.94
2018-10-16T02:22:03.446Z,13.93
2018-10-16T02:23:03.441Z,13.98
2018-10-16T02:24:03.437Z,13.98
2018-10-16T02:25:03.435Z,13.94
2018-10-16T02:26:03.431Z,13.98
2018-10-16T02:27:03.426Z,13.99
2018-10-16T02:28:03.417Z,13.99
2018-10-16T02:29:03.408Z,14.01
2018-10-16T02:30:03.405Z,14.09
2018-10-16T02:31:03.405Z,14.05
2018-10-16T02:32:03.395Z,14.02
2018-10-16T02:33:03.389Z,13.94
2018-10-16T02:34:03.382Z,13.96
2018-10-16T02:35:03.376Z,14.11
2018-10-16T02:36:03.370Z,14.06
2018-10-16T02:37:03.370Z,14.05
2018-10-16T02:38:03.364Z,13.99
2018-10-16T02:39:03.360Z,13.99
2018-10-16T02:40:03.353Z,14.05
2018-10-16T02:41:03.343Z,13.91
2018-10-16T02:42:03.337Z,13.99
2018-10-16T02:43:03.332Z,14.04
2018-10-16T02:44:03.326Z,13.99
2018-10-16T02:45:03.325Z,13.96
2018-10-16T02:46:03.320Z,13.98
2018-10-16T02:47:03.311Z,14.01
2018-10-16T02:48:03.304Z,13.94
2018-10-16T02:49:03.304Z,14.02
2018-10-16T02:50:03.300Z,13.94
2018-10-16T02:51:03.294Z,13.93
2018-10-16T02:52:03.289Z,13.99
2018-10-16T02:53:03.278Z,13.93
2018-10-16T02:54:03.272Z,13.98
2018-10-16T02:55:03.267Z,13.93
2018-10-16T02:56:03.262Z,13.94
2018-10-16T02:57:03.260Z,13.94
2018-10-16T02:58:03.256Z,13.93
2018-10-16T02:59:03.249Z,13.96
2018-10-16T03:00:03.243Z,13.98
2018-10-16T03:01:03.235Z,13.98
2018-10-16T03:02:03.228Z,13.98
2018-10-16T03:03:03.227Z,13.99
2018-10-16T03:04:03.221Z,13.94
2018-10-16T03:05:03.211Z,13.94
2018-10-16T03:06:03.208Z,13.98
2018-10-16T03:07:03.201Z,13.98
2018-10-16T03:08:03.196Z,13.93
2018-10-16T03:09:03.196Z,13.98
2018-10-16T03:10:03.191Z,14.01
2018-10-16T03:11:03.188Z,13.99
2018-10-16T03:12:03.178Z,14.02
2018-10-16T03:13:03.168Z,13.96
2018-10-16T03:14:03.163Z,14.01
2018-10-16T03:15:03.158Z,14.11
2018-10-16T03:16:03.152Z,14.05
2018-10-16T03:17:03.152Z,13.98
2018-10-16T03:18:03.150Z,14.06
2018-10-16T03:19:03.136Z,14.09
2018-10-16T03:20:03.134Z,14.04
2018-10-16T03:21:03.129Z,14.12
2018-10-16T03:22:03.123Z,14.12
2018-10-16T03:23:03.120Z,14.13
2018-10-16T03:24:03.112Z,14.13
2018-10-16T03:25:03.103Z,14.09
2018-10-16T03:26:03.100Z,14.13
2018-10-16T03:27:03.094Z,14.16
2018-10-16T03:28:03.089Z,14.21
2018-10-16T03:29:03.087Z,14.17
2018-10-16T03:30:03.088Z,14.23
2018-10-16T03:31:03.076Z,14.19
2018-10-16T03:32:03.071Z,14.24
2018-10-16T03:33:03.060Z,14.17
2018-10-16T03:34:03.056Z,14.19
2018-10-16T03:35:03.055Z,14.21
2018-10-16T03:36:03.049Z,14.34
2018-10-16T03:37:03.039Z,14.26
2018-10-16T03:38:03.034Z,14.24
2018-10-16T03:39:03.028Z,14.27
2018-10-16T03:40:03.022Z,14.34
2018-10-16T03:41:03.021Z,14.29
2018-10-16T03:42:03.017Z,14.27
2018-10-16T03:43:03.011Z,14.34
2018-10-16T03:44:03.006Z,14.29
2018-10-16T03:45:02.996Z,14.34
2018-10-16T03:46:02.994Z,14.30
2018-10-16T03:47:02.992Z,14.38
2018-10-16T03:48:02.981Z,14.31
2018-10-16T03:49:02.980Z,14.35
2018-10-16T03:50:02.975Z,14.39
2018-10-16T03:51:02.966Z,14.31
2018-10-16T03:52:02.959Z,14.36
2018-10-16T03:53:02.959Z,14.35
2018-10-16T03:54:02.954Z,14.41
2018-10-16T03:55:02.948Z,14.39
2018-10-16T03:56:02.942Z,14.49
2018-10-16T03:57:02.933Z,14.42
2018-10-16T03:58:02.933Z,14.53
2018-10-16T03:59:02.923Z,14.57
2018-10-16T04:00:02.917Z,14.57
2018-10-16T04:01:02.917Z,14.49
2018-10-16T04:02:02.912Z,14.54
2018-10-16T04:03:02.906Z,14.60
2018-10-16T04:04:02.905Z,14.56
2018-10-16T04:05:02.891Z,14.53
2018-10-16T04:06:02.886Z,14.59
2018-10-16T04:07:02.887Z,14.60
2018-10-16T04:08:02.880Z,14.64
2018-10-16T04:09:02.873Z,14.66
2018-10-16T04:10:02.866Z,14.66
2018-10-16T04:11:02.862Z,14.66
2018-10-16T04:12:02.854Z,14.72
2018-10-16T04:13:02.854Z,14.67
2018-10-16T04:14:02.942Z,14.67
2018-10-16T04:15:02.845Z,14.75
2018-10-16T04:16:02.839Z,14.72
2018-10-16T04:17:02.832Z,14.67
2018-10-16T04:18:02.828Z,14.67
2018-10-16T04:19:02.820Z,14.78
2018-10-16T04:20:02.814Z,14.71
2018-10-16T04:21:02.815Z,14.63
2018-10-16T04:22:02.811Z,14.69
2018-10-16T04:23:02.881Z,14.69
2018-10-16T04:24:02.794Z,14.72
2018-10-16T04:25:02.795Z,14.78
2018-10-16T04:26:02.793Z,14.67
2018-10-16T04:27:02.783Z,14.69
2018-10-16T04:28:02.778Z,14.69
2018-10-16T04:29:02.791Z,14.78
2018-10-16T04:30:02.764Z,14.75
2018-10-16T04:31:02.759Z,14.83
2018-10-16T04:32:02.753Z,14.79
2018-10-16T04:33:02.754Z,14.90
2018-10-16T04:34:02.749Z,14.80
2018-10-16T04:35:02.743Z,14.79
2018-10-16T04:36:02.738Z,14.78
2018-10-16T04:37:02.728Z,14.83
2018-10-16T04:38:02.723Z,14.83
2018-10-16T04:39:02.723Z,14.87
2018-10-16T04:40:02.718Z,14.79
2018-10-16T04:41:02.709Z,14.87
2018-10-16T04:42:02.703Z,14.90
2018-10-16T04:43:02.705Z,14.90
2018-10-16T04:44:02.693Z,14.91
2018-10-16T04:45:02.697Z,14.85
2018-10-16T04:46:02.691Z,14.93
2018-10-16T04:47:02.684Z,14.90
2018-10-16T04:48:02.679Z,14.86
2018-10-16T04:49:02.672Z,14.87
2018-10-16T04:50:02.665Z,14.91
2018-10-16T04:51:02.665Z,14.91
2018-10-16T04:52:02.653Z,14.79
2018-10-16T04:53:02.652Z,14.80
2018-10-16T04:54:02.650Z,14.82
2018-10-16T04:55:02.676Z,14.78
2018-10-16T04:56:02.633Z,14.80
2018-10-16T04:57:02.632Z,14.78
2018-10-16T04:58:02.628Z,14.79
2018-10-16T04:59:02.625Z,14.78
2018-10-16T05:00:02.618Z,14.71
2018-10-16T05:01:02.608Z,14.75
2018-10-16T05:02:02.605Z,14.69
2018-10-16T05:03:02.598Z,14.74
2018-10-16T05:04:02.653Z,14.71
2018-10-16T05:05:02.594Z,14.71
2018-10-16T05:06:02.590Z,14.67
2018-10-16T05:07:02.582Z,14.69
2018-10-16T05:08:02.577Z,14.67
2018-10-16T05:09:02.572Z,14.60
2018-10-16T05:10:02.563Z,14.64
2018-10-16T05:11:02.562Z,14.59
2018-10-16T05:12:02.557Z,14.63
2018-10-16T05:13:02.576Z,14.63
2018-10-16T05:14:02.543Z,14.66
2018-10-16T05:15:02.538Z,14.61
2018-10-16T05:16:02.536Z,14.61
2018-10-16T05:17:02.532Z,14.54
2018-10-16T05:18:02.531Z,14.59
2018-10-16T05:19:02.538Z,14.59
2018-10-16T05:20:02.515Z,14.61
2018-10-16T05:21:02.506Z,14.61
2018-10-16T05:22:02.504Z,14.61
2018-10-16T05:23:02.495Z,14.57
2018-10-16T05:24:02.495Z,14.48
2018-10-16T05:25:02.488Z,14.54
2018-10-16T05:26:02.485Z,14.59
2018-10-16T05:27:02.474Z,14.45
2018-10-16T05:28:02.469Z,14.45
2018-10-16T05:29:02.468Z,14.45
2018-10-16T05:30:02.462Z,14.48
2018-10-16T05:31:02.519Z,14.56
2018-10-16T05:32:02.456Z,14.46
2018-10-16T05:33:02.444Z,14.53
2018-10-16T05:34:02.437Z,14.46
2018-10-16T05:35:02.432Z,14.48
2018-10-16T05:36:02.425Z,14.46
2018-10-16T05:37:02.426Z,14.44
2018-10-16T05:38:02.419Z,14.41
2018-10-16T05:39:02.437Z,14.39
2018-10-16T05:40:02.410Z,14.49
2018-10-16T05:41:02.404Z,14.41
2018-10-16T05:42:02.396Z,14.44
2018-10-16T05:43:02.396Z,14.45
2018-10-16T05:44:02.389Z,14.52
2018-10-16T05:45:02.380Z,14.41
2018-10-16T05:46:02.375Z,14.49
2018-10-16T05:47:02.369Z,14.44
2018-10-16T05:48:02.363Z,14.42
2018-10-16T05:49:02.365Z,14.39
2018-10-16T05:50:02.358Z,14.44
2018-10-16T05:51:02.351Z,14.45
2018-10-16T05:52:02.346Z,14.39
2018-10-16T05:53:02.336Z,14.39
2018-10-16T05:54:02.331Z,14.42
2018-10-16T05:55:02.328Z,14.49
2018-10-16T05:56:02.321Z,14.44
2018-10-16T05:57:02.323Z,14.44
2018-10-16T05:58:02.316Z,14.49
2018-10-16T05:59:02.307Z,14.57
2018-10-16T06:00:02.301Z,14.49
2018-10-16T06:01:02.301Z,14.59
2018-10-16T06:02:02.295Z,14.49
2018-10-16T06:03:02.288Z,14.57
2018-10-16T06:04:02.282Z,14.57
2018-10-16T06:05:02.273Z,14.54
2018-10-16T06:06:02.268Z,14.53
2018-10-16T06:07:02.264Z,14.57
2018-10-16T06:08:02.258Z,14.54
2018-10-16T06:09:02.260Z,14.49
2018-10-16T06:10:02.253Z,14.59
2018-10-16T06:11:02.247Z,14.56
2018-10-16T06:12:02.260Z,14.59
2018-10-16T06:13:02.232Z,14.59
2018-10-16T06:14:02.234Z,14.63
2018-10-16T06:15:02.225Z,14.61
2018-10-16T06:16:02.288Z,14.57
2018-10-16T06:17:02.211Z,14.66
2018-10-16T06:18:02.205Z,14.63
2018-10-16T06:19:02.200Z,14.63
2018-10-16T06:20:02.194Z,14.66
2018-10-16T06:21:02.194Z,14.64
2018-10-16T06:22:02.188Z,14.63
2018-10-16T06:23:02.184Z,14.63
2018-10-16T06:24:02.178Z,14.60
2018-10-16T06:25:02.170Z,14.71
2018-10-16T06:26:02.163Z,14.64
2018-10-16T06:27:02.158Z,14.71
2018-10-16T06:28:02.157Z,14.60
2018-10-16T06:29:02.154Z,14.71
2018-10-16T06:30:02.212Z,14.67
2018-10-16T06:31:02.139Z,14.71
2018-10-16T06:32:02.132Z,14.67
2018-10-16T06:33:02.134Z,14.69
2018-10-16T06:34:02.129Z,14.75
2018-10-16T06:35:02.121Z,14.74
2018-10-16T06:36:02.115Z,14.71
2018-10-16T06:37:02.109Z,14.74
2018-10-16T06:38:02.101Z,14.67
2018-10-16T06:39:02.099Z,14.74
2018-10-16T06:40:02.091Z,14.75
2018-10-16T06:41:02.301Z,14.71
2018-10-16T06:42:02.088Z,14.75
2018-10-16T06:43:02.083Z,14.79
2018-10-16T06:44:02.146Z,14.71
2018-10-16T06:45:02.066Z,14.72
2018-10-16T06:46:02.064Z,14.78
2018-10-16T06:47:02.061Z,14.80
2018-10-16T06:48:02.250Z,14.90
2018-10-16T06:49:02.045Z,14.82
2018-10-16T06:50:02.046Z,14.93
2018-10-16T06:51:02.037Z,14.97
2018-10-16T06:52:02.032Z,15.01
2018-10-16T06:53:02.050Z,15.00
2018-10-16T06:54:02.026Z,15.13
2018-10-16T06:55:02.072Z,15.15
2018-10-16T06:56:02.016Z,15.18
2018-10-16T06:57:02.006Z,15.37
2018-10-16T06:58:02.002Z,15.35
2018-10-16T06:59:01.997Z,15.44
2018-10-16T07:00:02.083Z,15.46
2018-10-16T07:01:02.013Z,15.49
2018-10-16T07:02:01.986Z,15.64
2018-10-16T07:03:01.982Z,15.60
2018-10-16T07:04:01.972Z,15.67
2018-10-16T07:05:01.974Z,15.76
2018-10-16T07:06:01.968Z,15.81
2018-10-16T07:07:02.147Z,16.08
2018-10-16T07:08:01.959Z,16.30
2018-10-16T07:09:01.952Z,16.45
2018-10-16T07:10:01.944Z,16.55
2018-10-16T07:11:01.941Z,16.60
2018-10-16T07:12:01.936Z,16.59
2018-10-16T07:13:01.936Z,16.69
2018-10-16T07:14:01.935Z,16.77
2018-10-16T07:15:01.969Z,16.80
2018-10-16T07:16:01.923Z,16.88
2018-10-16T07:17:01.914Z,17.02
2018-10-16T07:18:01.911Z,17.12
2018-10-16T07:19:01.911Z,17.17
2018-10-16T07:20:01.906Z,17.35
2018-10-16T07:21:01.909Z,17.33
2018-10-16T07:22:01.896Z,17.42
2018-10-16T07:23:01.894Z,17.45
2018-10-16T07:24:01.949Z,17.62
2018-10-16T07:25:01.892Z,17.81
2018-10-16T07:26:01.885Z,18.07
2018-10-16T07:27:01.883Z,18.38
2018-10-16T07:28:01.877Z,18.93
2018-10-16T07:29:01.900Z,19.46
2018-10-16T07:30:01.947Z,19.75
2018-10-16T07:31:01.866Z,20.33
2018-10-16T07:32:01.858Z,21.09
2018-10-16T07:33:01.863Z,21.96
2018-10-16T07:34:01.859Z,22.61
2018-10-16T07:35:01.852Z,23.15
2018-10-16T07:36:01.867Z,23.49
2018-10-16T07:37:01.855Z,23.97
2018-10-16T07:38:02.046Z,24.61
2018-10-16T07:39:02.009Z,25.19
2018-10-16T07:40:01.850Z,25.66
2018-10-16T07:41:01.847Z,26.21
2018-10-16T07:42:01.844Z,26.57
2018-10-16T07:43:01.844Z,26.88
2018-10-16T07:44:01.844Z,27.33
2018-10-16T07:45:01.852Z,27.52
2018-10-16T07:46:01.851Z,27.99
2018-10-16T07:47:01.852Z,28.23
2018-10-16T07:48:01.853Z,28.52
2018-10-16T07:49:01.850Z,28.73
2018-10-16T07:50:01.852Z,28.98
2018-10-16T07:51:01.860Z,28.95
2018-10-16T07:52:01.860Z,28.88
2018-10-16T07:53:01.859Z,28.40
2018-10-16T07:54:01.864Z,27.59
2018-10-16T07:55:01.869Z,27.06
2018-10-16T07:56:01.870Z,26.98
2018-10-16T07:57:01.881Z,27.35
2018-10-16T07:58:01.879Z,27.99
2018-10-16T07:59:01.882Z,28.33
2018-10-16T08:00:01.886Z,28.94
2018-10-16T08:01:01.885Z,29.33
2018-10-16T08:02:01.891Z,29.79
2018-10-16T08:03:01.896Z,29.86
2018-10-16T08:04:01.897Z,30.06
2018-10-16T08:05:01.913Z,30.13
2018-10-16T08:06:01.909Z,30.34
2018-10-16T08:07:01.908Z,30.25
2018-10-16T08:08:01.913Z,30.34
2018-10-16T08:09:01.921Z,30.40
2018-10-16T08:10:01.926Z,30.16
2018-10-16T08:11:01.929Z,30.37
2018-10-16T08:12:01.937Z,30.54
2018-10-16T08:13:01.936Z,30.96
2018-10-16T08:14:01.944Z,30.88
2018-10-16T08:15:01.947Z,30.54
2018-10-16T08:16:01.951Z,30.45
2018-10-16T08:17:02.006Z,30.19
2018-10-16T08:18:01.968Z,30.26
2018-10-16T08:19:01.975Z,29.42
2018-10-16T08:20:01.982Z,28.46
2018-10-16T08:21:01.983Z,28.50
2018-10-16T08:22:01.990Z,27.98
2018-10-16T08:23:02.001Z,28.32
2018-10-16T08:24:02.009Z,28.87
2018-10-16T08:25:02.013Z,28.80
2018-10-16T08:26:02.017Z,29.44
2018-10-16T08:27:02.023Z,29.45
2018-10-16T08:28:02.030Z,29.42
2018-10-16T08:29:02.039Z,29.76
2018-10-16T08:30:02.228Z,30.21
2018-10-16T08:31:02.053Z,30.91
2018-10-16T08:32:02.069Z,31.34
2018-10-16T08:33:02.064Z,31.68
2018-10-16T08:34:02.099Z,32.17
2018-10-16T08:35:02.079Z,32.69
2018-10-16T08:36:02.177Z,33.09
2018-10-16T08:37:02.122Z,33.45
2018-10-16T08:38:02.131Z,33.50
2018-10-16T08:39:02.111Z,33.82
2018-10-16T08:40:02.118Z,33.70
2018-10-16T08:41:02.131Z,33.87
2018-10-16T08:42:02.260Z,33.99
2018-10-16T08:43:02.149Z,33.74
2018-10-16T08:44:02.158Z,33.65
2018-10-16T08:45:02.285Z,34.09
2018-10-16T08:46:02.248Z,34.65
2018-10-16T08:47:02.187Z,34.73
2018-10-16T08:48:02.189Z,34.64
2018-10-16T08:49:02.203Z,34.16
2018-10-16T08:50:02.214Z,34.03
2018-10-16T08:51:02.224Z,34.58
2018-10-16T08:52:02.233Z,34.46
2018-10-16T08:53:02.238Z,34.65
2018-10-16T08:54:02.250Z,34.06
2018-10-16T08:55:02.355Z,34.08
2018-10-16T08:56:02.271Z,34.27
2018-10-16T08:57:02.278Z,34.48
2018-10-16T08:58:02.288Z,34.42
2018-10-16T08:59:02.299Z,34.78
2018-10-16T09:00:02.308Z,34.78
2018-10-16T09:01:02.325Z,34.95
2018-10-16T09:02:02.335Z,34.78
2018-10-16T09:03:02.347Z,35.18
2018-10-16T09:04:02.356Z,35.66
2018-10-16T09:05:02.412Z,35.69
2018-10-16T09:06:02.372Z,35.77
2018-10-16T09:07:02.384Z,35.87
2018-10-16T09:08:02.393Z,35.89
2018-10-16T09:09:02.421Z,36.08
2018-10-16T09:10:02.422Z,35.89
2018-10-16T09:11:02.428Z,35.47
2018-10-16T09:12:02.442Z,35.93
2018-10-16T09:13:02.488Z,36.19
2018-10-16T09:14:02.540Z,35.93
2018-10-16T09:15:02.478Z,35.61
2018-10-16T09:16:02.489Z,35.56
2018-10-16T09:17:02.496Z,35.09
2018-10-16T09:18:02.508Z,35.50
2018-10-16T09:19:02.524Z,35.17
2018-10-16T09:20:02.529Z,35.65
2018-10-16T09:21:02.546Z,35.64
2018-10-16T09:22:02.558Z,35.68
2018-10-16T09:23:02.568Z,35.64
2018-10-16T09:24:02.580Z,34.83
2018-10-16T09:25:02.618Z,35.15
2018-10-16T09:26:02.603Z,35.03
2018-10-16T09:27:02.615Z,34.36
2018-10-16T09:28:02.626Z,34.67
2018-10-16T09:29:02.634Z,33.97
2018-10-16T09:30:02.651Z,34.30
2018-10-16T09:31:02.720Z,35.07
2018-10-16T09:32:02.669Z,35.58
2018-10-16T09:33:02.686Z,35.15
2018-10-16T09:34:02.699Z,35.46
2018-10-16T09:35:02.709Z,35.92
2018-10-16T09:36:02.721Z,35.59
2018-10-16T09:37:02.727Z,34.88
2018-10-16T09:38:02.854Z,34.37
2018-10-16T09:39:02.752Z,34.83
2018-10-16T09:40:02.762Z,35.44
2018-10-16T09:41:02.779Z,35.71
2018-10-16T09:42:02.791Z,36.27
2018-10-16T09:43:02.800Z,35.74
2018-10-16T09:44:02.810Z,36.25
2018-10-16T09:45:02.827Z,36.68
2018-10-16T09:46:02.839Z,36.08
2018-10-16T09:47:02.853Z,36.38
2018-10-16T09:48:02.864Z,35.43
2018-10-16T09:49:02.872Z,35.66
2018-10-16T09:50:02.886Z,35.21
2018-10-16T09:51:02.896Z,35.40
2018-10-16T09:52:02.908Z,34.28
2018-10-16T09:53:02.925Z,34.33
2018-10-16T09:54:02.937Z,34.67
2018-10-16T09:55:02.950Z,34.87
2018-10-16T09:56:02.961Z,35.43
2018-10-16T09:57:02.969Z,36.02
2018-10-16T09:58:02.982Z,36.40
2018-10-16T09:59:03.004Z,36.30
2018-10-16T10:00:03.011Z,36.19
2018-10-16T10:01:03.079Z,36.31
2018-10-16T10:02:03.032Z,36.43
2018-10-16T10:03:03.048Z,36.75
2018-10-16T10:04:03.057Z,37.01
2018-10-16T10:05:03.074Z,36.96
2018-10-16T10:06:03.085Z,37.01
2018-10-16T10:07:03.099Z,36.65
2018-10-16T10:08:03.113Z,35.84
2018-10-16T10:09:03.120Z,35.76
2018-10-16T10:10:03.141Z,36.13
2018-10-16T10:11:03.205Z,36.25
2018-10-16T10:12:03.156Z,35.43
2018-10-16T10:13:03.175Z,35.64
2018-10-16T10:14:03.187Z,36.22
2018-10-16T10:15:03.195Z,36.72
2018-10-16T10:16:03.208Z,37.02
2018-10-16T10:17:03.227Z,37.27
2018-10-16T10:18:03.238Z,37.27
2018-10-16T10:19:03.252Z,37.50
2018-10-16T10:20:03.263Z,37.70
2018-10-16T10:21:03.276Z,37.56
2018-10-16T10:22:03.286Z,37.95
2018-10-16T10:23:03.299Z,36.49
2018-10-16T10:24:03.310Z,36.22
2018-10-16T10:25:03.407Z,36.50
2018-10-16T10:26:03.343Z,36.77
2018-10-16T10:27:03.358Z,37.18
2018-10-16T10:28:03.368Z,37.58
2018-10-16T10:29:03.375Z,37.80
2018-10-16T10:30:03.390Z,37.82
2018-10-16T10:31:03.406Z,37.62
2018-10-16T10:32:03.419Z,37.47
2018-10-16T10:33:03.426Z,37.65
2018-10-16T10:34:03.439Z,37.45
2018-10-16T10:35:03.453Z,37.65
2018-10-16T10:36:03.465Z,37.05
2018-10-16T10:37:03.484Z,36.93
2018-10-16T10:38:03.498Z,36.86
2018-10-16T10:39:03.509Z,37.01
2018-10-16T10:40:03.524Z,36.06
2018-10-16T10:41:03.528Z,35.96
2018-10-16T10:42:03.547Z,36.31
2018-10-16T10:43:03.552Z,36.50
2018-10-16T10:44:03.565Z,36.43
2018-10-16T10:45:03.581Z,36.37
2018-10-16T10:46:03.593Z,36.77
2018-10-16T10:47:03.601Z,36.38
2018-10-16T10:48:03.613Z,35.99
2018-10-16T10:49:03.628Z,35.92
2018-10-16T10:50:03.849Z,36.05
2018-10-16T10:51:03.838Z,36.52
2018-10-16T10:52:03.664Z,37.12
2018-10-16T10:53:03.675Z,37.63
2018-10-16T10:54:03.683Z,38.18
2018-10-16T10:55:03.694Z,38.52
2018-10-16T10:56:03.706Z,38.65
2018-10-16T10:57:03.961Z,38.89
2018-10-16T10:58:03.733Z,38.70
2018-10-16T10:59:03.747Z,37.24
2018-10-16T11:00:03.758Z,37.06
2018-10-16T11:01:03.765Z,36.97
2018-10-16T11:02:03.781Z,37.27
2018-10-16T11:03:03.820Z,37.47
2018-10-16T11:04:03.806Z,37.60
2018-10-16T11:05:03.816Z,37.65
2018-10-16T11:06:03.831Z,37.54
2018-10-16T11:07:03.839Z,37.54
2018-10-16T11:08:03.852Z,37.12
2018-10-16T11:09:03.947Z,37.15
2018-10-16T11:10:03.881Z,37.04
2018-10-16T11:11:03.893Z,36.52
2018-10-16T11:12:03.905Z,35.95
2018-10-16T11:13:03.912Z,35.46
2018-10-16T11:14:03.924Z,34.83
2018-10-16T11:15:03.954Z,34.46
2018-10-16T11:16:03.947Z,33.84
2018-10-16T11:17:03.964Z,32.61
2018-10-16T11:18:03.975Z,32.29
2018-10-16T11:19:03.981Z,32.07
2018-10-16T11:20:03.992Z,31.67
2018-10-16T11:21:04.042Z,31.27
2018-10-16T11:22:04.016Z,31.19
2018-10-16T11:23:04.027Z,31.13
2018-10-16T11:24:04.036Z,31.15
2018-10-16T11:25:04.043Z,30.96
2018-10-16T11:26:04.047Z,30.76
2018-10-16T11:27:04.101Z,30.67
2018-10-16T11:28:04.062Z,30.63
2018-10-16T11:29:04.075Z,30.68
2018-10-16T11:30:04.087Z,30.49
2018-10-16T11:31:04.091Z,30.49
2018-10-16T11:32:04.097Z,30.48
2018-10-16T11:33:04.136Z,30.37
2018-10-16T11:34:04.106Z,30.28
2018-10-16T11:35:04.119Z,30.26
2018-10-16T11:36:04.123Z,30.23
2018-10-16T11:37:04.180Z,30.22
2018-10-16T11:38:04.132Z,30.38
2018-10-16T11:39:04.150Z,30.34
2018-10-16T11:40:04.143Z,30.34
2018-10-16T11:41:04.154Z,30.34
2018-10-16T11:42:04.162Z,30.23
2018-10-16T11:43:04.166Z,29.78
2018-10-16T11:44:04.170Z,29.25
2018-10-16T11:45:04.255Z,28.77
2018-10-16T11:46:04.178Z,28.69
2018-10-16T11:47:04.183Z,28.74
2018-10-16T11:48:04.188Z,28.77
2018-10-16T11:49:04.198Z,28.64
2018-10-16T11:50:04.284Z,28.45
2018-10-16T11:51:04.203Z,28.46
2018-10-16T11:52:04.269Z,28.48
2018-10-16T11:53:04.222Z,28.43
2018-10-16T11:54:04.222Z,28.18
2018-10-16T11:55:04.228Z,28.02
2018-10-16T11:56:04.307Z,27.81
2018-10-16T11:57:04.229Z,27.38
2018-10-16T11:58:04.233Z,27.16
2018-10-16T11:59:04.300Z,26.97
2018-10-16T12:00:04.242Z,26.84
2018-10-16T12:01:04.256Z,26.83
2018-10-16T12:02:04.345Z,26.81
2018-10-16T12:03:04.259Z,26.87
2018-10-16T12:04:04.262Z,26.88
2018-10-16T12:05:04.262Z,27.09
2018-10-16T12:06:04.281Z,27.16
2018-10-16T12:07:04.307Z,27.23
2018-10-16T12:08:04.302Z,27.30
2018-10-16T12:09:04.275Z,27.38
2018-10-16T12:10:04.280Z,27.46
2018-10-16T12:11:04.309Z,27.59
2018-10-16T12:12:04.285Z,27.66
2018-10-16T12:13:04.324Z,27.78
2018-10-16T12:14:04.397Z,27.71
2018-10-16T12:15:04.301Z,27.62
2018-10-16T12:16:04.304Z,27.55
2018-10-16T12:17:04.301Z,27.61
2018-10-16T12:18:04.306Z,27.45
2018-10-16T12:19:04.341Z,27.45
2018-10-16T12:20:04.457Z,27.48
2018-10-16T12:21:04.348Z,27.46
2018-10-16T12:22:04.323Z,27.66
2018-10-16T12:23:04.320Z,27.69
2018-10-16T12:24:04.388Z,27.78
2018-10-16T12:25:04.357Z,27.83
2018-10-16T12:26:04.334Z,27.87
2018-10-16T12:27:04.343Z,27.98
2018-10-16T12:28:04.340Z,27.96
2018-10-16T12:29:04.381Z,28.05
2018-10-16T12:30:04.345Z,27.95
2018-10-16T12:31:04.426Z,27.91
2018-10-16T12:32:04.402Z,27.95
2018-10-16T12:33:04.460Z,27.96
2018-10-16T12:34:04.358Z,27.99
2018-10-16T12:35:04.361Z,28.11
2018-10-16T12:36:04.363Z,28.03
2018-10-16T12:37:04.402Z,28.01
2018-10-16T12:38:04.364Z,27.99
2018-10-16T12:39:04.403Z,28.01
2018-10-16T12:40:04.433Z,28.01
2018-10-16T12:41:04.384Z,28.02
2018-10-16T12:42:04.397Z,28.05
2018-10-16T12:43:04.459Z,28.01
2018-10-16T12:44:04.381Z,27.90
2018-10-16T12:45:04.425Z,27.80
2018-10-16T12:46:04.452Z,27.84
2018-10-16T12:47:04.466Z,27.83
2018-10-16T12:48:04.412Z,27.65
2018-10-16T12:49:04.395Z,27.49
2018-10-16T12:50:04.434Z,27.39
2018-10-16T12:51:04.409Z,27.30
2018-10-16T12:52:04.402Z,27.28